createdAt,value
2023-05-10T00:00:32.265Z,100.00
2023-05-10T00:03:00.304Z,99.43
2023-05-10T00:05:28.199Z,99.93
2023-05-10T00:07:56.071Z,98.77
2023-05-10T00:10:24.057Z,99.15
2023-05-10T00:12:53.243Z,98.24
2023-05-10T00:15:21.267Z,98.23
2023-05-10T00:17:49.175Z,98.36
2023-05-10T00:20:17.413Z,98.49
2023-05-10T00:22:45.551Z,99.35
2023-05-10T00:25:13.439Z,98.55
2023-05-10T00:27:41.270Z,98.19
2023-05-10T00:30:11.177Z,98.54
2023-05-10T00:32:39.100Z,98.32
2023-05-10T00:35:07.733Z,98.88
2023-05-10T00:37:35.652Z,98.41
2023-05-10T00:40:03.615Z,97.95
2023-05-10T00:42:31.504Z,99.12
2023-05-10T00:44:59.590Z,99.12
2023-05-10T00:47:29.641Z,97.94
2023-05-10T00:49:58.135Z,98.38
2023-05-10T00:52:26.985Z,97.84
2023-05-10T00:54:55.321Z,99.64
2023-05-10T00:57:23.282Z,98.46
2023-05-10T00:59:51.389Z,98.20
2023-05-10T01:02:20.021Z,98.39
2023-05-10T01:04:49.482Z,98.77
2023-05-10T01:07:17.963Z,97.54
2023-05-10T01:09:45.944Z,97.80
2023-05-10T01:12:13.913Z,98.60
2023-05-10T01:14:41.941Z,98.90
2023-05-10T01:17:12.037Z,99.33
2023-05-10T01:19:40.320Z,99.38
2023-05-10T01:22:27.457Z,99.50
2023-05-10T01:25:30.765Z,99.33
2023-05-10T01:28:19.625Z,99.69
2023-05-10T01:31:12.347Z,99.67
2023-05-10T01:33:48.962Z,100.00
2023-05-10T01:36:27.045Z,99.38
2023-05-10T01:39:01.027Z,99.79
2023-05-10T01:41:42.083Z,99.89
2023-05-10T01:44:18.729Z,99.97
2023-05-10T01:46:52.938Z,100.00
2023-05-10T01:49:27.418Z,99.75
2023-05-10T01:52:01.300Z,99.73
2023-05-10T01:54:31.163Z,99.76
2023-05-10T01:57:08.701Z,100.00
2023-05-10T01:59:41.601Z,100.00
2023-05-10T02:02:13.022Z,100.00
2023-05-10T02:04:44.239Z,99.98
2023-05-10T02:07:12.716Z,100.00
2023-05-10T02:09:40.765Z,100.00
2023-05-10T02:12:09.890Z,100.00
2023-05-10T02:14:39.899Z,100.00
2023-05-10T02:17:09.682Z,100.00
2023-05-10T02:19:40.545Z,100.00
2023-05-10T02:22:10.961Z,100.00
2023-05-10T02:24:40.705Z,100.00
2023-05-10T02:27:10.635Z,100.00
2023-05-10T02:29:39.035Z,100.00
2023-05-10T02:32:08.422Z,100.00
2023-05-10T02:34:37.025Z,100.00
2023-05-10T02:37:05.544Z,100.00
2023-05-10T02:39:36.617Z,100.00
2023-05-10T02:42:06.103Z,99.92
2023-05-10T02:44:36.213Z,99.55
2023-05-10T02:47:05.029Z,100.00
2023-05-10T02:49:32.855Z,100.00
2023-05-10T02:52:03.847Z,99.52
2023-05-10T02:54:40.318Z,100.00
2023-05-10T02:57:09.219Z,100.00
2023-05-10T02:59:38.006Z,100.00
2023-05-10T03:02:06.123Z,100.00
2023-05-10T03:04:34.156Z,100.00
2023-05-10T03:07:02.008Z,100.00
2023-05-10T03:09:31.092Z,100.00
2023-05-10T03:12:07.556Z,100.00
2023-05-10T03:14:47.503Z,100.00
2023-05-10T03:17:24.601Z,100.00
2023-05-10T03:19:56.234Z,100.00
2023-05-10T03:22:28.366Z,100.00
2023-05-10T03:24:58.654Z,100.00
2023-05-10T03:27:32.117Z,100.00
2023-05-10T03:30:02.285Z,99.53
2023-05-10T03:32:35.306Z,99.54
2023-05-10T03:35:03.397Z,100.00
2023-05-10T03:37:31.572Z,100.00
2023-05-10T03:39:59.429Z,100.00
2023-05-10T03:42:27.369Z,100.00
2023-05-10T03:44:56.701Z,99.99
2023-05-10T03:47:25.096Z,100.00
2023-05-10T03:49:53.753Z,100.00
2023-05-10T03:52:21.685Z,100.00
2023-05-10T03:54:49.726Z,100.00
2023-05-10T03:57:17.757Z,100.00
2023-05-10T03:59:46.303Z,100.00
2023-05-10T04:02:15.568Z,100.00
2023-05-10T04:04:43.473Z,100.00
2023-05-10T04:07:11.735Z,100.00
2023-05-10T04:09:40.006Z,100.00
2023-05-10T04:12:10.732Z,100.00
2023-05-10T04:14:38.864Z,100.00
2023-05-10T04:17:07.250Z,100.00
2023-05-10T04:19:36.495Z,100.00
2023-05-10T04:22:04.998Z,100.00
2023-05-10T04:24:32.864Z,100.00
2023-05-10T04:27:00.663Z,100.00
2023-05-10T04:29:28.747Z,100.00
2023-05-10T04:31:57.552Z,100.00
2023-05-10T04:34:25.444Z,100.00
2023-05-10T04:36:54.642Z,100.00
2023-05-10T04:39:22.473Z,100.00
2023-05-10T04:41:50.363Z,100.00
2023-05-10T04:44:18.154Z,100.00
2023-05-10T04:46:46.087Z,100.00
2023-05-10T04:49:13.954Z,100.00
2023-05-10T04:51:41.760Z,100.00
2023-05-10T04:54:11.306Z,100.00
2023-05-10T04:56:39.153Z,100.00
2023-05-10T04:59:07.008Z,100.00
2023-05-10T05:01:35.164Z,100.00
2023-05-10T05:04:03.061Z,100.00
2023-05-10T05:06:31.153Z,100.00
2023-05-10T05:08:58.987Z,100.00
2023-05-10T05:11:28.185Z,100.00
2023-05-10T05:13:56.021Z,100.00
2023-05-10T05:16:23.922Z,100.00
2023-05-10T05:18:52.056Z,100.00
2023-05-10T05:21:20.606Z,100.00
2023-05-10T05:23:48.514Z,100.00
2023-05-10T05:26:17.027Z,100.00
2023-05-10T05:28:46.320Z,100.00
2023-05-10T05:31:14.919Z,100.00
2023-05-10T05:33:42.765Z,100.00
2023-05-10T05:36:11.012Z,100.00
2023-05-10T05:38:38.881Z,100.00
2023-05-10T05:41:06.840Z,100.00
2023-05-10T05:43:36.665Z,100.00
2023-05-10T05:46:08.241Z,100.00
2023-05-10T05:48:36.100Z,100.00
2023-05-10T05:51:05.786Z,100.00
2023-05-10T05:53:35.158Z,100.00
2023-05-10T05:56:04.168Z,100.00
2023-05-10T05:58:31.995Z,100.00
2023-05-10T06:00:59.987Z,100.00
2023-05-10T06:03:29.344Z,99.88
2023-05-10T06:05:57.247Z,100.00
2023-05-10T06:08:25.123Z,100.00
2023-05-10T06:10:52.936Z,100.00
2023-05-10T06:13:20.873Z,100.00
2023-05-10T06:15:48.811Z,100.00
2023-05-10T06:18:16.731Z,100.00
2023-05-10T06:20:45.944Z,100.00
2023-05-10T06:23:13.777Z,100.00
2023-05-10T06:25:41.634Z,100.00
2023-05-10T06:28:09.504Z,100.00
2023-05-10T06:30:38.636Z,100.00
2023-05-10T06:33:06.774Z,99.97
2023-05-10T06:35:34.698Z,99.68
2023-05-10T06:38:03.837Z,99.93
2023-05-10T06:40:31.637Z,100.00
2023-05-10T06:42:59.469Z,100.00
2023-05-10T06:45:27.293Z,100.00
2023-05-10T06:47:55.273Z,99.73
2023-05-10T06:50:23.495Z,99.33
2023-05-10T06:52:52.954Z,98.06
2023-05-10T06:55:22.734Z,99.50
2023-05-10T06:57:51.514Z,97.80
2023-05-10T07:00:20.964Z,98.29
2023-05-10T07:02:49.587Z,98.07
2023-05-10T07:05:17.874Z,98.61
2023-05-10T07:07:46.131Z,98.80
2023-05-10T07:10:14.393Z,97.91
2023-05-10T07:12:43.792Z,98.21
2023-05-10T07:15:12.116Z,97.39
2023-05-10T07:17:40.837Z,97.68
2023-05-10T07:20:11.038Z,94.18
2023-05-10T07:22:38.909Z,94.56
2023-05-10T07:25:07.707Z,96.52
2023-05-10T07:27:35.893Z,95.94
2023-05-10T07:30:05.679Z,92.49
2023-05-10T07:32:33.759Z,94.76
2023-05-10T07:35:01.649Z,93.65
2023-05-10T07:37:29.501Z,94.41
2023-05-10T07:39:57.601Z,90.80
2023-05-10T07:42:25.554Z,92.46
2023-05-10T07:44:53.492Z,90.10
2023-05-10T07:47:22.710Z,90.52
2023-05-10T07:49:50.687Z,91.13
2023-05-10T07:52:18.601Z,89.33
2023-05-10T07:54:46.863Z,89.39
2023-05-10T07:57:18.335Z,91.42
2023-05-10T07:59:46.733Z,88.34
2023-05-10T08:02:14.566Z,88.00
2023-05-10T08:04:43.964Z,88.92
2023-05-10T08:07:12.504Z,88.83
2023-05-10T08:09:40.395Z,88.53
2023-05-10T08:12:08.404Z,89.16
2023-05-10T08:14:37.565Z,89.22
2023-05-10T08:17:05.463Z,87.93
2023-05-10T08:19:33.368Z,87.61
2023-05-10T08:22:02.708Z,86.67
2023-05-10T08:24:30.474Z,87.08
2023-05-10T08:26:58.344Z,86.05
2023-05-10T08:29:26.754Z,85.49
2023-05-10T08:31:56.395Z,84.64
2023-05-10T08:34:25.031Z,85.14
2023-05-10T08:36:53.092Z,82.93
2023-05-10T08:39:29.749Z,81.51
2023-05-10T08:42:01.875Z,80.40
2023-05-10T08:44:29.976Z,81.19
2023-05-10T08:46:59.590Z,78.74
2023-05-10T08:49:29.502Z,78.20
2023-05-10T08:51:58.171Z,77.71
2023-05-10T08:54:27.682Z,78.98
2023-05-10T08:56:55.519Z,79.15
2023-05-10T08:59:23.536Z,81.13
2023-05-10T09:01:52.344Z,77.73
2023-05-10T09:04:21.384Z,78.26
2023-05-10T09:06:49.437Z,77.68
2023-05-10T09:09:18.323Z,75.28
2023-05-10T09:11:47.933Z,76.13
2023-05-10T09:14:18.276Z,74.54
2023-05-10T09:16:46.534Z,76.47
2023-05-10T09:19:14.475Z,74.46
2023-05-10T09:21:42.591Z,75.18
2023-05-10T09:24:10.968Z,75.73
2023-05-10T09:26:50.433Z,74.71
2023-05-10T09:29:18.445Z,75.89
2023-05-10T09:31:48.517Z,75.90
2023-05-10T09:34:20.992Z,74.42
2023-05-10T09:36:59.669Z,74.46
2023-05-10T09:39:34.221Z,74.31
2023-05-10T09:42:05.719Z,73.46
2023-05-10T09:44:34.433Z,71.07
2023-05-10T09:47:02.754Z,71.94
2023-05-10T09:49:31.002Z,71.89
2023-05-10T09:52:03.569Z,70.11
2023-05-10T09:54:31.650Z,69.77
2023-05-10T09:56:59.476Z,69.03
2023-05-10T09:59:30.067Z,70.59
2023-05-10T10:01:59.398Z,69.92
2023-05-10T10:04:28.311Z,72.20
2023-05-10T10:07:05.049Z,71.11
2023-05-10T10:09:33.314Z,69.94
2023-05-10T10:12:01.664Z,68.59
2023-05-10T10:14:31.306Z,67.93
2023-05-10T10:17:08.277Z,67.69
2023-05-10T10:19:38.039Z,65.95
2023-05-10T10:22:06.706Z,67.10
2023-05-10T10:24:34.856Z,65.85
2023-05-10T10:27:18.078Z,66.52
2023-05-10T10:29:54.963Z,66.33
2023-05-10T10:32:31.296Z,66.90
2023-05-10T10:34:59.389Z,66.14
2023-05-10T10:37:45.138Z,66.91
2023-05-10T10:40:27.393Z,66.94
2023-05-10T10:42:55.660Z,66.69
2023-05-10T10:45:26.401Z,64.14
2023-05-10T10:48:24.552Z,63.21
2023-05-10T10:50:59.666Z,63.72
2023-05-10T10:53:29.990Z,65.34
2023-05-10T10:56:08.629Z,65.83
2023-05-10T10:58:37.121Z,66.84
2023-05-10T11:01:17.495Z,67.95
2023-05-10T11:04:21.671Z,69.05
2023-05-10T11:06:49.526Z,70.55
2023-05-10T11:09:18.480Z,70.89
2023-05-10T11:11:55.932Z,71.28
2023-05-10T11:14:24.713Z,71.67
2023-05-10T11:16:52.764Z,73.52
2023-05-10T11:19:22.031Z,76.11
2023-05-10T11:21:51.526Z,73.80
2023-05-10T11:24:21.444Z,73.63
2023-05-10T11:26:52.146Z,71.95
2023-05-10T11:29:21.251Z,71.56
2023-05-10T11:31:50.010Z,70.21
2023-05-10T11:34:31.079Z,70.01
2023-05-10T11:36:59.772Z,71.48
2023-05-10T11:39:29.523Z,70.16
2023-05-10T11:41:58.530Z,70.98
2023-05-10T11:44:31.349Z,69.61
2023-05-10T11:47:00.770Z,69.93
2023-05-10T11:49:30.196Z,69.78
2023-05-10T11:52:06.288Z,70.06
2023-05-10T11:54:35.793Z,69.27
2023-05-10T11:57:03.903Z,69.57
2023-05-10T11:59:31.722Z,68.80
2023-05-10T12:01:59.844Z,68.90
2023-05-10T12:04:30.502Z,69.44
2023-05-10T12:06:58.604Z,66.13
2023-05-10T12:09:39.764Z,66.42
2023-05-10T12:12:11.501Z,66.91
2023-05-10T12:14:39.344Z,66.25
2023-05-10T12:17:07.130Z,66.89
2023-05-10T12:19:41.141Z,67.18
2023-05-10T12:22:09.024Z,67.98
2023-05-10T12:24:37.054Z,66.51
2023-05-10T12:27:08.974Z,66.57
2023-05-10T12:29:36.824Z,66.67
2023-05-10T12:32:04.640Z,67.19
2023-05-10T12:34:34.940Z,66.33
2023-05-10T12:37:04.522Z,67.11
2023-05-10T12:39:42.848Z,66.56
2023-05-10T12:42:11.147Z,66.86
2023-05-10T12:44:38.901Z,66.09
2023-05-10T12:47:06.842Z,64.25
2023-05-10T12:49:34.958Z,65.13
2023-05-10T12:52:04.434Z,64.91
2023-05-10T12:54:32.298Z,63.29
2023-05-10T12:57:00.084Z,64.85
2023-05-10T12:59:28.031Z,63.90
2023-05-10T13:01:55.986Z,64.36
2023-05-10T13:04:23.768Z,63.69
2023-05-10T13:06:51.931Z,65.01
2023-05-10T13:09:21.439Z,64.44
2023-05-10T13:11:50.347Z,64.67
2023-05-10T13:14:20.365Z,64.78
2023-05-10T13:16:48.271Z,65.42
2023-05-10T13:19:16.750Z,63.41
2023-05-10T13:21:45.288Z,59.48
2023-05-10T13:24:14.657Z,59.18
2023-05-10T13:26:43.911Z,58.37
2023-05-10T13:29:11.830Z,58.15
2023-05-10T13:31:39.671Z,58.73
2023-05-10T13:34:07.852Z,59.76
2023-05-10T13:36:35.607Z,62.34
2023-05-10T13:39:04.378Z,60.93
2023-05-10T13:41:32.521Z,61.85
2023-05-10T13:44:02.662Z,62.61
2023-05-10T13:46:31.062Z,61.27
2023-05-10T13:48:58.933Z,57.56
2023-05-10T13:51:26.747Z,58.97
2023-05-10T13:53:54.508Z,59.33
2023-05-10T13:56:22.513Z,59.77
2023-05-10T13:58:51.160Z,57.47
2023-05-10T14:01:20.531Z,58.66
2023-05-10T14:03:49.148Z,59.67
2023-05-10T14:06:17.195Z,58.15
2023-05-10T14:08:45.035Z,56.76
2023-05-10T14:11:12.832Z,56.84
2023-05-10T14:13:40.667Z,58.47
2023-05-10T14:16:09.086Z,57.37
2023-05-10T14:18:38.316Z,56.99
2023-05-10T14:21:06.399Z,56.59
2023-05-10T14:23:34.205Z,56.95
2023-05-10T14:26:02.779Z,56.56
2023-05-10T14:28:32.176Z,56.86
2023-05-10T14:31:01.183Z,57.48
2023-05-10T14:33:29.156Z,57.91
2023-05-10T14:35:58.552Z,57.28
2023-05-10T14:38:26.364Z,56.06
2023-05-10T14:40:54.158Z,57.00
2023-05-10T14:43:21.922Z,57.73
2023-05-10T14:45:49.709Z,57.77
2023-05-10T14:48:18.478Z,58.52
2023-05-10T14:50:47.593Z,58.12
2023-05-10T14:53:16.886Z,57.50
2023-05-10T14:55:44.957Z,58.01
2023-05-10T14:58:12.779Z,58.56
2023-05-10T15:00:40.546Z,57.72
2023-05-10T15:03:09.097Z,58.81
2023-05-10T15:05:38.252Z,58.58
2023-05-10T15:08:06.571Z,59.61
2023-05-10T15:10:35.993Z,57.93
2023-05-10T15:13:03.806Z,57.71
2023-05-10T15:15:31.675Z,57.99
2023-05-10T15:17:59.574Z,58.36
2023-05-10T15:20:27.503Z,58.12
2023-05-10T15:22:55.324Z,57.29
2023-05-10T15:25:24.661Z,56.70
2023-05-10T15:27:53.885Z,56.81
2023-05-10T15:30:21.712Z,56.25
2023-05-10T15:32:49.712Z,57.37
2023-05-10T15:35:18.225Z,57.18
2023-05-10T15:37:46.213Z,56.80
2023-05-10T15:40:14.341Z,56.90
2023-05-10T15:42:42.155Z,56.41
2023-05-10T15:45:13.215Z,56.31
2023-05-10T15:47:41.313Z,57.18
2023-05-10T15:50:09.910Z,57.23
2023-05-10T15:52:37.712Z,56.87
2023-05-10T15:55:12.655Z,58.26
2023-05-10T15:57:41.292Z,56.82
2023-05-10T16:00:12.610Z,57.35
2023-05-10T16:02:40.582Z,58.15
2023-05-10T16:05:09.560Z,58.27
2023-05-10T16:07:37.408Z,57.98
2023-05-10T16:10:06.993Z,57.12
2023-05-10T16:12:35.612Z,58.18
2023-05-10T16:15:03.428Z,57.50
2023-05-10T16:17:32.702Z,57.93
2023-05-10T16:20:01.168Z,58.86
2023-05-10T16:22:29.593Z,60.21
2023-05-10T16:24:58.017Z,58.50
2023-05-10T16:27:28.608Z,58.94
2023-05-10T16:29:56.612Z,58.78
2023-05-10T16:32:24.503Z,58.65
2023-05-10T16:34:54.421Z,59.26
2023-05-10T16:37:22.370Z,60.73
2023-05-10T16:39:50.263Z,59.99
2023-05-10T16:42:18.141Z,59.99
2023-05-10T16:44:46.170Z,61.81
2023-05-10T16:47:14.051Z,61.20
2023-05-10T16:49:42.464Z,61.19
2023-05-10T16:52:12.085Z,60.69
2023-05-10T16:54:40.348Z,60.69
2023-05-10T16:57:08.581Z,61.49
2023-05-10T16:59:36.475Z,59.91
2023-05-10T17:02:04.572Z,61.07
2023-05-10T17:04:32.522Z,61.49
2023-05-10T17:07:00.432Z,62.19
2023-05-10T17:09:29.872Z,64.37
2023-05-10T17:11:57.921Z,62.64
2023-05-10T17:14:25.960Z,62.99
2023-05-10T17:16:55.097Z,64.23
2023-05-10T17:19:26.149Z,64.41
2023-05-10T17:21:54.205Z,63.91
2023-05-10T17:24:22.035Z,65.04
2023-05-10T17:26:51.291Z,65.69
2023-05-10T17:29:19.111Z,66.76
2023-05-10T17:31:48.057Z,68.15
2023-05-10T17:34:15.920Z,67.63
2023-05-10T17:36:43.894Z,68.00
2023-05-10T17:39:11.866Z,68.89
2023-05-10T17:41:39.811Z,68.99
2023-05-10T17:44:09.029Z,69.23
2023-05-10T17:46:37.960Z,69.95
2023-05-10T17:49:05.800Z,70.46
2023-05-10T17:51:33.665Z,69.75
2023-05-10T17:54:01.584Z,70.80
2023-05-10T17:56:29.868Z,71.63
2023-05-10T17:58:57.766Z,70.87
2023-05-10T18:01:27.003Z,70.49
2023-05-10T18:03:54.887Z,71.02
2023-05-10T18:06:23.558Z,70.60
2023-05-10T18:08:51.492Z,71.86
2023-05-10T18:11:20.116Z,71.81
2023-05-10T18:13:49.625Z,72.09
2023-05-10T18:16:17.530Z,72.77
2023-05-10T18:18:46.788Z,73.00
2023-05-10T18:21:14.689Z,73.33
2023-05-10T18:23:42.449Z,74.39
2023-05-10T18:26:10.322Z,74.38
2023-05-10T18:28:38.166Z,74.32
2023-05-10T18:31:06.008Z,76.00
2023-05-10T18:33:33.784Z,74.26
2023-05-10T18:36:04.180Z,74.21
2023-05-10T18:38:32.049Z,73.99
2023-05-10T18:40:59.925Z,73.76
2023-05-10T18:43:27.762Z,74.05
2023-05-10T18:45:55.603Z,74.84
2023-05-10T18:48:23.430Z,74.77
2023-05-10T18:50:51.688Z,75.38
2023-05-10T18:53:22.502Z,75.22
2023-05-10T18:55:56.870Z,75.93
2023-05-10T18:58:24.756Z,75.57
2023-05-10T19:00:53.250Z,76.67
2023-05-10T19:03:21.164Z,76.27
2023-05-10T19:05:49.015Z,76.27
2023-05-10T19:08:17.186Z,76.63
2023-05-10T19:10:46.828Z,76.29
2023-05-10T19:13:15.916Z,75.87
2023-05-10T19:15:43.746Z,75.71
2023-05-10T19:18:11.639Z,76.19
2023-05-10T19:20:42.265Z,76.52
2023-05-10T19:23:12.337Z,76.45
2023-05-10T19:25:42.262Z,76.74
2023-05-10T19:28:13.513Z,76.55
2023-05-10T19:30:41.388Z,76.80
2023-05-10T19:33:10.143Z,76.97
2023-05-10T19:35:38.095Z,77.07
2023-05-10T19:38:05.836Z,77.34
2023-05-10T19:40:33.765Z,77.52
2023-05-10T19:43:01.654Z,77.78
2023-05-10T19:45:30.842Z,77.48
2023-05-10T19:47:58.854Z,77.15
2023-05-10T19:50:26.605Z,76.32
2023-05-10T19:52:55.714Z,75.31
2023-05-10T19:55:28.966Z,75.47
2023-05-10T19:57:56.802Z,76.00
2023-05-10T20:00:27.267Z,76.47
2023-05-10T20:02:56.891Z,76.44
2023-05-10T20:05:25.204Z,76.75
2023-05-10T20:07:54.257Z,76.76
2023-05-10T20:10:24.294Z,77.40
2023-05-10T20:12:54.215Z,77.46
2023-05-10T20:15:23.441Z,77.45
2023-05-10T20:17:53.987Z,78.14
2023-05-10T20:20:23.878Z,78.09
2023-05-10T20:22:52.617Z,77.76
2023-05-10T20:25:20.521Z,78.07
2023-05-10T20:27:50.772Z,78.64
2023-05-10T20:30:19.097Z,78.30
2023-05-10T20:32:47.078Z,78.28
2023-05-10T20:35:15.016Z,77.72
2023-05-10T20:37:44.615Z,78.24
2023-05-10T20:40:12.980Z,78.67
2023-05-10T20:42:40.838Z,78.54
2023-05-10T20:45:09.953Z,78.70
2023-05-10T20:47:37.868Z,79.22
2023-05-10T20:50:06.540Z,79.17
2023-05-10T20:52:34.354Z,79.97
2023-05-10T20:55:03.633Z,79.58
2023-05-10T20:57:31.476Z,79.40
2023-05-10T20:59:59.359Z,79.65
2023-05-10T21:02:27.319Z,80.22
2023-05-10T21:04:57.761Z,79.75
2023-05-10T21:07:26.216Z,79.05
2023-05-10T21:09:55.105Z,79.36
2023-05-10T21:12:24.592Z,80.24
2023-05-10T21:14:52.417Z,79.86
2023-05-10T21:17:20.415Z,80.38
2023-05-10T21:19:48.428Z,79.85
2023-05-10T21:22:16.406Z,79.21
2023-05-10T21:24:44.726Z,80.52
2023-05-10T21:27:13.715Z,81.01
2023-05-10T21:29:44.246Z,80.00
2023-05-10T21:32:15.447Z,81.64
2023-05-10T21:34:45.444Z,81.13
2023-05-10T21:37:14.644Z,81.46
2023-05-10T21:39:42.871Z,81.04
2023-05-10T21:42:11.112Z,82.03
2023-05-10T21:44:39.815Z,81.34
2023-05-10T21:47:09.371Z,82.17
2023-05-10T21:49:38.801Z,81.92
2023-05-10T21:52:07.288Z,81.86
2023-05-10T21:54:35.406Z,82.06
2023-05-10T21:57:03.643Z,82.33
2023-05-10T21:59:31.480Z,82.77
2023-05-10T22:02:00.752Z,82.82
2023-05-10T22:04:30.720Z,83.61
2023-05-10T22:06:58.580Z,83.41
2023-05-10T22:09:26.399Z,83.47
2023-05-10T22:11:55.380Z,84.03
2023-05-10T22:14:24.281Z,84.47
2023-05-10T22:16:52.264Z,83.02
2023-05-10T22:19:20.191Z,82.92
2023-05-10T22:21:49.531Z,82.96
2023-05-10T22:24:17.532Z,83.02
2023-05-10T22:26:45.703Z,83.92
2023-05-10T22:29:13.552Z,83.93
2023-05-10T22:31:41.769Z,83.37
2023-05-10T22:34:09.648Z,84.08
2023-05-10T22:36:38.500Z,83.75
2023-05-10T22:39:08.822Z,83.67
2023-05-10T22:41:36.687Z,83.66
2023-05-10T22:44:05.470Z,83.86
2023-05-10T22:46:34.595Z,84.26
2023-05-10T22:49:04.040Z,84.18
2023-05-10T22:51:31.893Z,85.35
2023-05-10T22:53:59.729Z,85.05
2023-05-10T22:56:29.029Z,85.27
2023-05-10T22:58:59.797Z,84.20
2023-05-10T23:01:28.493Z,84.71
2023-05-10T23:03:57.122Z,84.85
2023-05-10T23:06:27.368Z,84.48
2023-05-10T23:08:55.343Z,84.74
2023-05-10T23:11:23.111Z,84.23
2023-05-10T23:13:52.285Z,84.28
2023-05-10T23:16:21.429Z,84.37
2023-05-10T23:18:52.143Z,84.89
2023-05-10T23:21:20.134Z,83.65
2023-05-10T23:23:49.089Z,84.54
2023-05-10T23:26:17.175Z,83.78
2023-05-10T23:28:45.907Z,84.11
2023-05-10T23:31:16.424Z,84.12
2023-05-10T23:33:44.279Z,84.26
2023-05-10T23:36:12.407Z,84.01
2023-05-10T23:38:41.224Z,84.25
2023-05-10T23:41:10.444Z,84.62
2023-05-10T23:43:39.140Z,84.27
2023-05-10T23:46:07.072Z,84.38
2023-05-10T23:48:37.058Z,83.97
2023-05-10T23:51:05.242Z,84.13
2023-05-10T23:53:34.094Z,84.78
2023-05-10T23:56:02.005Z,84.45
2023-05-10T23:58:30.509Z,85.21
